メインページ
METAR-TAF:

METAR-TAF

空港 :

マタベリ国際空港

イースター島, チリ

緯度: 27-09S, 経度: 109-25W, 海抜: 51m

現時点の気象観測

当レポートは19分前の00:00(UTC)に作成
南/南東の風 11kt
気温 19°C
湿度 52%
気圧 1020 hPa
視程10km以上
高度2000ftの雲はほとんどない
高度4000ftの雲は散在している

METAR: SCIP 210000Z 15011KT 9999 FEW020 SCT040 19/09 Q1020 NOSIG

時間: 19:19 (00:19 UTC)

予報

当レポートは1時間29分前の22:50(UTC)に作成
予報は21日の 00時(UTC)から 22日の 00時(UTC)まで有効
南/南東の風 15kt
視程10km以上
高度2000ftの雲はほとんどない
高度4000ftの雲は散在している
21日の 06時(UTC)から 21日の 14時(UTC)まで一時的に
南東の風 10kt
高度2000ftの雲は散在している
高度4000ftの千切れ雲あり
21日の 15時(UTC)から 21日の 17時(UTC)まで徐々に
東/南東の風 13kt
高度2000ftの雲は散在している
高度4000ftの千切れ雲あり

TAF: SCIP 202250Z 2100/2200 16015KT 9999 FEW020 SCT040 TN15/2111Z TX20/2120Z TEMPO 2106/2114 13010KT SCT020 BKN040 BECMG 2115/2117 12013KT SCT020 BKN040

4,000以上の空港の気象観測と天気予報(METAR報とTAF報)

利用可能な観測所は地図上に黄色い丸と赤い丸で示す。

丸の上にカーソルを重ねると観測所名を参照できる。

次にクリックすると気象観測と天気予報を参照できる。

マップの切り替え:黒色「×」印の緑ボタンをクリックして拡大、「-」印の緑ボタンをクリックして縮小、緑色の三角印をクリックして隣りの地図に切り替え


METAR-TAF: